createdAt,value
2017-04-20T00:00:25.977Z,64.60
2017-04-20T00:01:25.158Z,64.30
2017-04-20T00:02:22.556Z,64.30
2017-04-20T00:03:19.920Z,64.40
2017-04-20T00:04:17.361Z,64.10
2017-04-20T00:05:15.953Z,63.60
2017-04-20T00:06:14.110Z,64.10
2017-04-20T00:07:11.440Z,64.00
2017-04-20T00:08:08.801Z,63.50
2017-04-20T00:09:07.013Z,63.70
2017-04-20T00:10:04.358Z,63.50
2017-04-20T00:11:01.678Z,63.50
2017-04-20T00:11:59.120Z,63.90
2017-04-20T00:12:57.268Z,64.70
2017-04-20T00:13:54.687Z,64.80
2017-04-20T00:14:52.774Z,65.20
2017-04-20T00:15:50.175Z,65.20
2017-04-20T00:16:47.503Z,65.30
2017-04-20T00:17:44.873Z,65.70
2017-04-20T00:18:43.018Z,64.50
2017-04-20T00:19:40.442Z,64.50
2017-04-20T00:20:37.860Z,64.10
2017-04-20T00:21:35.233Z,64.20
2017-04-20T00:22:32.641Z,64.50
2017-04-20T00:23:30.003Z,64.70
2017-04-20T00:24:27.406Z,65.50
2017-04-20T00:25:25.670Z,65.50
2017-04-20T00:26:23.539Z,64.80
2017-04-20T00:27:20.889Z,64.90
2017-04-20T00:28:18.979Z,65.00
2017-04-20T00:29:17.119Z,64.90
2017-04-20T00:30:14.649Z,64.80
2017-04-20T00:31:12.037Z,65.10
2017-04-20T00:32:09.378Z,64.30
2017-04-20T00:33:06.735Z,64.30
2017-04-20T00:34:05.348Z,64.50
2017-04-20T00:35:02.718Z,64.90
2017-04-20T00:36:00.158Z,64.80
2017-04-20T00:36:57.614Z,64.60
2017-04-20T00:37:55.698Z,64.70
2017-04-20T00:38:53.057Z,64.70
2017-04-20T00:39:50.470Z,64.50
2017-04-20T00:40:47.926Z,64.90
2017-04-20T00:41:45.269Z,64.60
2017-04-20T00:42:42.590Z,64.80
2017-04-20T00:43:39.962Z,64.60
2017-04-20T00:44:37.327Z,64.50
2017-04-20T00:45:36.239Z,65.30
2017-04-20T00:46:33.644Z,65.60
2017-04-20T00:47:31.715Z,65.80
2017-04-20T00:48:29.065Z,66.00
2017-04-20T00:49:26.521Z,65.70
2017-04-20T00:50:23.887Z,64.90
2017-04-20T00:51:21.302Z,64.80
2017-04-20T00:52:20.017Z,64.10
2017-04-20T00:53:18.097Z,63.90
2017-04-20T00:54:15.493Z,63.90
2017-04-20T00:55:12.868Z,64.00
2017-04-20T00:56:11.001Z,64.20
2017-04-20T00:57:08.417Z,64.10
2017-04-20T00:58:05.757Z,64.10
2017-04-20T00:59:04.426Z,64.40
2017-04-20T01:00:01.877Z,64.40
2017-04-20T01:00:59.268Z,65.10
2017-04-20T05:57:59.482Z,67.10
2017-04-20T05:58:57.574Z,66.90
2017-04-20T05:59:54.901Z,66.90
2017-04-20T06:00:59.750Z,66.10
2017-04-20T06:01:57.882Z,65.60
2017-04-20T06:03:28.289Z,65.20
2017-04-20T06:04:26.490Z,65.00
2017-04-20T06:05:24.641Z,64.90
2017-04-20T06:06:22.091Z,64.90
2017-04-20T06:07:20.222Z,65.10
2017-04-20T06:08:18.338Z,65.50
2017-04-20T06:09:16.584Z,65.20
2017-04-20T06:10:15.437Z,65.50
2017-04-20T06:11:13.534Z,65.20
2017-04-20T06:12:11.738Z,64.80
2017-04-20T06:13:09.859Z,64.80
2017-04-20T06:14:07.219Z,64.70
2017-04-20T06:15:05.340Z,64.10
2017-04-20T06:16:03.490Z,64.60
2017-04-20T06:17:01.585Z,64.40
2017-04-20T16:36:32.163Z,25.20
2017-04-20T16:37:31.157Z,25.30
2017-04-20T16:38:30.151Z,25.80
2017-04-20T16:39:28.415Z,25.90
2017-04-20T16:45:07.959Z,25.90
2017-04-20T16:46:06.346Z,24.70
2017-04-20T16:47:03.925Z,24.70
2017-04-20T16:48:01.505Z,24.90
2017-04-20T16:48:59.139Z,24.70
2017-04-20T16:49:56.667Z,25.10
2017-04-20T16:50:54.437Z,25.30
2017-04-20T16:51:52.042Z,26.70
2017-04-20T16:52:50.306Z,28.10
2017-04-20T16:53:48.618Z,28.40
2017-04-20T16:54:46.911Z,28.80
2017-04-20T16:55:44.430Z,28.70
2017-04-20T16:56:42.077Z,29.00
2017-04-20T16:57:39.639Z,29.80
2017-04-20T16:58:37.210Z,29.90
2017-04-20T16:59:34.839Z,29.60
2017-04-20T17:00:32.415Z,30.60
2017-04-20T17:01:29.956Z,29.80
2017-04-20T17:02:28.460Z,29.60
2017-04-20T17:03:26.068Z,29.50
2017-04-20T17:04:23.604Z,29.80
2017-04-20T17:05:22.395Z,31.10
2017-04-20T17:06:19.920Z,30.90
2017-04-20T17:07:18.194Z,31.20
2017-04-20T17:08:15.869Z,31.20
2017-04-20T17:09:14.174Z,32.10
2017-04-20T17:10:11.777Z,32.80
2017-04-20T17:11:10.100Z,31.00
2017-04-20T17:12:07.692Z,31.00
2017-04-20T17:13:06.072Z,30.40
2017-04-20T17:14:03.750Z,30.30
2017-04-20T17:15:02.051Z,30.10
2017-04-20T17:16:00.313Z,30.60
2017-04-20T17:16:58.663Z,30.30
2017-04-20T17:17:56.955Z,31.60
2017-04-20T17:18:54.512Z,31.60
2017-04-20T17:19:52.111Z,31.40
2017-04-20T17:20:49.656Z,32.10
2017-04-20T17:21:47.186Z,31.70
2017-04-20T17:22:44.704Z,32.20
2017-04-20T17:23:43.013Z,33.10
2017-04-20T17:24:40.531Z,33.00
2017-04-20T17:25:38.255Z,33.30
2017-04-20T17:26:36.682Z,33.90
2017-04-20T17:27:34.537Z,33.90
2017-04-20T17:28:32.071Z,34.40
2017-04-20T17:29:29.618Z,33.90
2017-04-20T17:30:27.195Z,34.00
2017-04-20T17:31:24.849Z,34.30
2017-04-20T17:32:23.195Z,34.00
2017-04-20T17:33:21.232Z,33.90
2017-04-20T17:34:18.861Z,33.90
2017-04-20T17:35:17.403Z,35.10
2017-04-20T17:36:15.707Z,35.00
2017-04-20T17:37:14.010Z,35.20
2017-04-20T17:38:12.321Z,35.00
2017-04-20T17:39:10.651Z,35.20
2017-04-20T17:40:08.954Z,35.60
2017-04-20T17:41:07.424Z,35.10
2017-04-20T17:42:04.986Z,35.10
2017-04-20T17:43:02.597Z,35.70
2017-04-20T17:44:00.228Z,35.60
2017-04-20T17:44:57.822Z,35.80
2017-04-20T17:45:56.085Z,35.70
2017-04-20T17:46:53.687Z,35.70
2017-04-20T17:47:51.311Z,35.90
2017-04-20T17:48:48.897Z,36.10
2017-04-20T17:49:47.212Z,35.90
2017-04-20T17:50:45.468Z,37.10
2017-04-20T17:51:43.739Z,36.80
2017-04-20T17:52:41.421Z,36.80
2017-04-20T17:53:39.029Z,36.50
2017-04-20T17:54:36.594Z,36.30
2017-04-20T17:55:34.147Z,36.40
2017-04-20T17:56:31.679Z,36.90
2017-04-20T17:57:29.196Z,36.80
2017-04-20T17:58:26.829Z,36.70
2017-04-20T17:59:24.382Z,36.70
2017-04-20T18:00:22.734Z,36.90
2017-04-20T18:01:20.348Z,36.90
2017-04-20T18:02:17.931Z,37.40
2017-04-20T18:03:15.551Z,37.80
2017-04-20T18:04:14.319Z,37.70
2017-04-20T18:05:11.851Z,37.90
2017-04-20T18:06:10.147Z,38.90
2017-04-20T18:07:08.443Z,39.10
2017-04-20T18:08:06.884Z,38.50
2017-04-20T18:09:05.535Z,38.50
2017-04-20T18:10:03.127Z,38.50
2017-04-20T18:11:00.664Z,39.70
2017-04-20T18:11:58.263Z,38.80
2017-04-20T18:12:56.707Z,38.70
2017-04-20T18:13:55.026Z,39.10
2017-04-20T18:14:53.327Z,40.00
2017-04-20T18:15:51.650Z,39.30
2017-04-20T18:16:49.935Z,39.70
2017-04-20T18:17:47.540Z,39.70
2017-04-20T18:18:45.173Z,39.70
2017-04-20T18:19:43.505Z,39.60
2017-04-20T18:20:41.792Z,39.50
2017-04-20T18:21:40.103Z,40.10
2017-04-20T18:22:38.448Z,40.30
2017-04-20T18:23:36.704Z,40.40
2017-04-20T18:24:35.099Z,39.80
2017-04-20T18:25:33.379Z,39.80
2017-04-20T18:26:32.416Z,40.10
2017-04-20T18:27:31.594Z,39.80
2017-04-20T18:28:29.965Z,40.80
2017-04-20T18:29:28.342Z,40.20
2017-04-20T18:30:26.763Z,40.80
2017-04-20T18:31:25.044Z,41.60
2017-04-20T18:32:23.381Z,41.10
2017-04-20T18:33:21.692Z,40.60
2017-04-20T18:34:19.302Z,40.60
2017-04-20T18:35:16.915Z,40.40
2017-04-20T18:36:15.303Z,41.30
2017-04-20T18:37:12.849Z,41.20
2017-04-20T18:38:11.153Z,41.70
2017-04-20T18:39:08.696Z,41.50
2017-04-20T18:40:06.283Z,41.70
2017-04-20T18:41:03.885Z,42.00
2017-04-20T18:42:01.564Z,42.20
2017-04-20T18:42:59.113Z,42.50
2017-04-20T18:43:56.683Z,43.10
2017-04-20T18:44:54.251Z,43.00
2017-04-20T18:45:51.949Z,43.10
2017-04-20T18:46:50.218Z,42.60
2017-04-20T18:47:47.806Z,42.70
2017-04-20T18:48:45.407Z,43.10
2017-04-20T18:49:42.931Z,43.00
2017-04-20T18:50:40.470Z,43.80
2017-04-20T18:51:37.991Z,43.70
2017-04-20T18:52:35.602Z,44.20
2017-04-20T18:53:33.151Z,43.70
2017-04-20T18:54:30.667Z,43.60
2017-04-20T18:55:29.004Z,44.30
2017-04-20T18:56:26.540Z,44.30
2017-04-20T18:57:24.090Z,45.00
2017-04-20T18:58:21.629Z,44.50
2017-04-20T18:59:19.982Z,43.80
2017-04-20T19:00:18.291Z,44.50
2017-04-20T19:01:16.075Z,44.40
2017-04-20T19:02:13.798Z,44.70
2017-04-20T19:03:11.418Z,44.60
2017-04-20T19:04:09.004Z,44.80
2017-04-20T19:05:07.364Z,44.50
2017-04-20T19:06:04.955Z,44.50
2017-04-20T19:07:02.570Z,44.80
2017-04-20T19:08:00.114Z,45.20
2017-04-20T19:08:57.675Z,45.40
2017-04-20T19:09:55.233Z,46.40
2017-04-20T19:10:52.869Z,46.20
2017-04-20T19:11:50.450Z,46.60
2017-04-20T19:12:47.989Z,46.60
2017-04-20T19:13:46.251Z,45.90
2017-04-20T19:14:43.766Z,45.90
2017-04-20T19:15:41.390Z,46.10
2017-04-20T19:16:38.924Z,46.40
2017-04-20T19:17:36.608Z,47.50
2017-04-20T19:18:34.545Z,46.30
2017-04-20T19:19:32.208Z,46.90
2017-04-20T19:20:30.522Z,46.60
2017-04-20T19:21:28.834Z,46.70
2017-04-20T19:22:27.189Z,47.30
2017-04-20T19:23:25.593Z,46.40
2017-04-20T19:24:23.956Z,47.60
2017-04-20T19:25:22.269Z,47.50
2017-04-20T19:26:21.374Z,47.60
2017-04-20T19:27:19.654Z,47.60
2017-04-20T19:28:18.002Z,47.20
2017-04-20T19:29:15.568Z,47.20
2017-04-20T19:30:13.178Z,47.30
2017-04-20T19:31:10.730Z,47.40
2017-04-20T19:32:08.254Z,47.50
2017-04-20T19:33:05.846Z,47.80
2017-04-20T19:34:03.394Z,47.40
2017-04-20T19:35:00.923Z,48.40
2017-04-20T19:35:59.205Z,49.20
2017-04-20T19:36:57.561Z,48.80
2017-04-20T19:37:55.958Z,49.60
2017-04-20T19:38:54.335Z,49.30
2017-04-20T19:39:52.064Z,49.30
2017-04-20T19:40:50.369Z,50.20
2017-04-20T19:41:48.752Z,50.50
2017-04-20T19:42:47.077Z,49.70
2017-04-20T19:43:45.391Z,50.10
2017-04-20T19:44:42.964Z,50.00
2017-04-20T19:45:40.540Z,50.70
2017-04-20T19:46:38.079Z,50.70
2017-04-20T19:47:35.732Z,50.50
2017-04-20T19:48:34.054Z,50.30
2017-04-20T19:49:32.369Z,50.60
2017-04-20T19:50:31.471Z,50.50
2017-04-20T19:51:29.975Z,51.10
2017-04-20T19:52:28.320Z,51.00
2017-04-20T19:53:26.723Z,51.10
2017-04-20T19:54:25.034Z,51.10
2017-04-20T19:55:23.399Z,51.10
2017-04-20T19:56:21.679Z,51.40
2017-04-20T19:57:20.019Z,51.50
2017-04-20T19:58:18.345Z,51.20
2017-04-20T19:59:16.654Z,51.10
2017-04-20T20:00:15.882Z,51.90
2017-04-20T20:01:14.170Z,51.70
2017-04-20T20:02:13.806Z,51.60
2017-04-20T20:03:12.968Z,51.60
2017-04-20T20:04:11.331Z,51.80
2017-04-20T20:05:09.672Z,51.40
2017-04-20T20:06:08.155Z,52.60
2017-04-20T20:07:06.449Z,51.60
2017-04-20T20:08:04.748Z,52.10
2017-04-20T20:09:03.634Z,52.40
2017-04-20T20:10:02.041Z,52.50
2017-04-20T20:11:00.356Z,52.70
2017-04-20T20:11:59.427Z,53.00
2017-04-20T20:12:57.704Z,53.80
2017-04-20T20:13:56.033Z,53.00
2017-04-20T20:14:54.324Z,52.90
2017-04-20T20:15:53.369Z,52.90
2017-04-20T20:16:51.771Z,52.80
2017-04-20T20:17:50.201Z,53.30
2017-04-20T20:18:47.722Z,53.30
2017-04-20T20:19:46.036Z,52.80
2017-04-20T20:20:44.314Z,53.00
2017-04-20T20:21:42.603Z,52.90
2017-04-20T20:22:40.911Z,53.70
2017-04-20T20:23:38.492Z,53.60
2017-04-20T20:24:36.063Z,53.30
2017-04-20T20:25:34.426Z,52.90
2017-04-20T20:26:32.952Z,53.50
2017-04-20T20:27:31.497Z,53.50
2017-04-20T20:28:29.145Z,53.10
2017-04-20T20:29:26.743Z,53.60
2017-04-20T20:30:24.256Z,53.80
2017-04-20T20:31:21.843Z,53.00
2017-04-20T20:32:19.392Z,53.50
2017-04-20T20:33:17.023Z,53.60
2017-04-20T20:34:14.944Z,54.30
2017-04-20T20:35:14.053Z,54.30
2017-04-20T20:36:11.817Z,54.30
2017-04-20T20:37:09.346Z,55.60
2017-04-20T20:38:06.986Z,54.60
2017-04-20T20:39:05.498Z,55.00
2017-04-20T20:40:03.787Z,54.70
2017-04-20T20:41:02.057Z,55.30
2017-04-20T20:42:00.307Z,55.50
2017-04-20T20:42:58.655Z,56.40
2017-04-20T20:43:56.998Z,55.10
2017-04-20T20:44:55.279Z,55.30
2017-04-20T20:45:53.655Z,53.80
2017-04-20T20:46:51.941Z,53.90
2017-04-20T20:47:50.207Z,53.50
2017-04-20T20:48:47.781Z,53.50
2017-04-20T20:49:45.454Z,53.60
2017-04-20T20:50:43.718Z,52.70
2017-04-20T20:51:42.102Z,52.80
2017-04-20T20:52:40.459Z,52.80
2017-04-20T20:53:38.889Z,52.50
2017-04-20T20:54:37.953Z,52.00
2017-04-20T20:55:37.080Z,52.90
2017-04-20T20:56:35.314Z,51.80
2017-04-20T20:57:33.647Z,51.80
2017-04-20T20:58:32.080Z,52.20
2017-04-20T20:59:30.365Z,52.10
2017-04-20T21:00:29.408Z,52.40
2017-04-20T21:01:27.661Z,52.10
2017-04-20T21:02:25.198Z,52.10
2017-04-20T21:03:22.767Z,52.30
2017-04-20T21:04:21.114Z,51.90
2017-04-20T21:05:19.382Z,50.80
2017-04-20T21:06:17.727Z,51.00
2017-04-20T21:07:16.072Z,50.60
2017-04-20T21:08:14.350Z,50.20
2017-04-20T21:09:12.775Z,49.80
2017-04-20T21:10:11.041Z,50.20
2017-04-20T21:11:09.408Z,50.20
2017-04-20T21:12:07.719Z,50.60
2017-04-20T21:13:05.251Z,49.80
2017-04-20T21:14:03.570Z,50.20
2017-04-20T21:15:01.928Z,50.30
2017-04-20T21:16:00.203Z,50.50
2017-04-20T21:16:58.468Z,50.20
2017-04-20T21:17:56.000Z,50.20
2017-04-20T21:18:54.235Z,50.30
2017-04-20T21:19:52.488Z,49.90
2017-04-20T21:20:50.132Z,49.80
2017-04-20T21:21:47.761Z,50.50
2017-04-20T21:22:46.069Z,50.30
2017-04-20T21:23:44.327Z,50.40
2017-04-20T21:24:42.665Z,50.00
2017-04-20T21:25:40.898Z,50.00
2017-04-20T21:26:39.277Z,50.20
2017-04-20T21:27:38.258Z,50.40
2017-04-20T21:28:35.822Z,50.40
2017-04-20T21:29:33.927Z,50.30
2017-04-20T21:30:31.426Z,50.20
2017-04-20T21:31:28.959Z,50.20
2017-04-20T21:32:27.287Z,49.70
2017-04-20T21:33:25.538Z,49.80
2017-04-20T21:34:23.092Z,49.90
2017-04-20T21:35:20.595Z,50.40
2017-04-20T21:36:18.142Z,50.80
2017-04-20T21:37:16.428Z,50.60
2017-04-20T21:38:14.076Z,50.60
2017-04-20T21:39:11.559Z,51.30
2017-04-20T21:40:09.087Z,51.30
2017-04-20T21:41:06.675Z,50.80
2017-04-20T21:42:04.198Z,50.90
2017-04-20T21:43:01.808Z,51.30
2017-04-20T21:43:59.416Z,50.70
2017-04-20T21:44:56.950Z,50.70
2017-04-20T21:45:54.500Z,50.70
2017-04-20T21:46:52.080Z,50.60
2017-04-20T21:47:50.377Z,50.70
2017-04-20T21:48:47.883Z,50.70
2017-04-20T21:49:45.568Z,50.60
2017-04-20T21:50:43.831Z,50.70
2017-04-20T21:51:42.080Z,51.20
2017-04-20T21:52:40.398Z,51.50
2017-04-20T21:53:38.757Z,51.30
2017-04-20T21:54:37.023Z,52.30
2017-04-20T21:55:35.301Z,52.10
2017-04-20T21:56:33.561Z,52.30
2017-04-20T21:57:32.022Z,51.90
2017-04-20T21:58:30.322Z,52.10
2017-04-20T21:59:28.548Z,52.00
2017-04-20T22:00:26.864Z,52.20
2017-04-20T22:01:25.132Z,52.20
2017-04-20T22:02:23.498Z,52.60
2017-04-20T22:03:21.122Z,52.60
2017-04-20T22:04:19.492Z,52.30
2017-04-20T22:05:17.232Z,52.30
2017-04-20T22:06:14.768Z,52.60
2017-04-20T22:07:12.339Z,52.40
2017-04-20T22:08:09.899Z,52.50
2017-04-20T22:09:07.464Z,52.70
2017-04-20T22:10:05.124Z,53.10
2017-04-20T22:11:02.651Z,53.00
2017-04-20T22:12:00.231Z,53.90
2017-04-20T22:12:57.771Z,54.10
2017-04-20T22:13:55.268Z,54.00
2017-04-20T22:14:52.816Z,54.90
2017-04-20T22:15:50.430Z,54.70
2017-04-20T22:16:47.963Z,54.60
2017-04-20T22:17:46.261Z,54.40
2017-04-20T22:18:43.776Z,54.40
2017-04-20T22:19:41.308Z,54.10
2017-04-20T22:20:38.839Z,54.00
2017-04-20T22:21:36.503Z,54.10
2017-04-20T22:22:34.046Z,54.90
2017-04-20T22:23:32.293Z,54.70
2017-04-20T22:24:29.795Z,54.70
2017-04-20T22:25:27.349Z,55.00
2017-04-20T22:26:24.871Z,54.50
2017-04-20T22:27:22.482Z,55.00
2017-04-20T22:28:19.999Z,54.50
2017-04-20T22:29:17.499Z,55.40
2017-04-20T22:30:15.001Z,55.80
2017-04-20T22:31:12.575Z,55.30
2017-04-20T22:32:10.835Z,55.90
2017-04-20T22:33:08.437Z,55.90
2017-04-20T22:34:05.937Z,55.10
2017-04-20T22:35:03.555Z,54.50
2017-04-20T22:36:01.084Z,54.20
2017-04-20T22:36:58.746Z,54.40
2017-04-20T22:37:56.287Z,54.30
2017-04-20T22:38:53.913Z,54.30
2017-04-20T22:39:51.468Z,54.40
2017-04-20T22:40:48.964Z,55.00
2017-04-20T22:41:46.507Z,54.30
2017-04-20T22:42:44.079Z,54.10
2017-04-20T22:43:41.687Z,54.30
2017-04-20T22:44:39.247Z,54.50
2017-04-20T22:45:37.154Z,54.30
2017-04-20T22:46:34.715Z,55.50
2017-04-20T22:47:32.963Z,54.70
2017-04-20T22:48:31.738Z,55.20
2017-04-20T22:49:29.363Z,55.00
2017-04-20T22:50:26.934Z,55.00
2017-04-20T22:51:24.515Z,54.90
2017-04-20T22:52:22.055Z,54.70
2017-04-20T22:53:20.518Z,54.60
2017-04-20T22:54:18.852Z,54.30
2017-04-20T22:55:17.187Z,54.20
2017-04-20T22:56:15.441Z,54.20
2017-04-20T22:57:13.710Z,54.00
2017-04-20T22:58:11.992Z,54.20
2017-04-20T22:59:10.383Z,55.10
2017-04-20T23:00:08.719Z,54.50
2017-04-20T23:01:06.947Z,54.40
2017-04-20T23:02:05.539Z,54.40
2017-04-20T23:03:03.056Z,54.60
2017-04-20T23:04:00.639Z,54.60
2017-04-20T23:04:58.212Z,54.10
2017-04-20T23:05:56.460Z,54.20
2017-04-20T23:06:54.016Z,54.10
2017-04-20T23:07:51.527Z,54.20
2017-04-20T23:08:49.063Z,55.10
2017-04-20T23:09:46.710Z,55.40
2017-04-20T23:10:44.219Z,56.10
2017-04-20T23:11:41.753Z,55.50
2017-04-20T23:12:39.305Z,55.40
2017-04-20T23:13:37.568Z,55.90
2017-04-20T23:14:35.914Z,56.20
2017-04-20T23:15:33.625Z,56.10
2017-04-20T23:16:31.110Z,55.80
2017-04-20T23:17:29.386Z,55.90
2017-04-20T23:18:26.962Z,55.90
2017-04-20T23:19:24.480Z,55.80
2017-04-20T23:20:22.703Z,56.30
2017-04-20T23:21:20.268Z,56.30
2017-04-20T23:22:18.487Z,56.30
2017-04-20T23:23:15.987Z,56.30
2017-04-20T23:24:14.212Z,56.40
2017-04-20T23:25:12.423Z,57.00
2017-04-20T23:26:10.038Z,56.90
2017-04-20T23:27:08.309Z,57.50
2017-04-20T23:28:07.283Z,58.10
2017-04-20T23:29:05.550Z,57.40
2017-04-20T23:30:03.795Z,57.20
2017-04-20T23:31:01.331Z,57.20
2017-04-20T23:31:58.944Z,57.20
2017-04-20T23:32:57.168Z,57.30
2017-04-20T23:33:55.402Z,56.50
2017-04-20T23:34:52.897Z,56.40
2017-04-20T23:35:50.399Z,56.70
2017-04-20T23:36:47.924Z,56.60
2017-04-20T23:37:46.354Z,56.50
2017-04-20T23:38:43.847Z,56.50
2017-04-20T23:39:41.355Z,56.30
2017-04-20T23:40:38.939Z,56.20
2017-04-20T23:41:37.272Z,55.80
2017-04-20T23:42:34.783Z,55.70
2017-04-20T23:43:32.406Z,55.80
2017-04-20T23:44:29.876Z,56.00
2017-04-20T23:45:27.430Z,55.80
2017-04-20T23:46:25.688Z,55.00
2017-04-20T23:47:23.187Z,55.00
2017-04-20T23:48:21.418Z,55.30
2017-04-20T23:49:19.020Z,55.30
2017-04-20T23:50:17.222Z,54.60
2017-04-20T23:51:14.715Z,54.60
2017-04-20T23:52:12.345Z,54.30
2017-04-20T23:53:09.867Z,53.90
2017-04-20T23:54:07.360Z,54.70
2017-04-20T23:55:04.982Z,54.00
2017-04-20T23:56:02.458Z,54.50
2017-04-20T23:56:59.925Z,54.50
2017-04-20T23:57:57.623Z,54.30
2017-04-20T23:58:55.157Z,54.50
2017-04-20T23:59:53.405Z,53.90
